Terminal Aerodrome Forecast
Issued by NWS Twin Cities, MN

Home | Current Version | Previous Version | Text Only | Print | Product List | Glossary On
Versions: 1 2 3 4 5 6 7 8 9 10 11 12 13 14 15 16 17 18
000
FTUS43 KMPX 191100
TAFEAU
TAF
KEAU 191120Z 1912/2012 15014G21KT P6SM SCT070 BKN130
     FM191700 17019G28KT P6SM SCT070 BKN130
     FM192100 18015G25KT P6SM VCSH SCT035 OVC060
      TEMPO 1923/2002 6SM -SHRA BKN040
     FM200200 18008KT P6SM SCT060 BKN100
     FM200800 23004KT P6SM BKN100=

USA.gov is the U.S. government's official web portal to all federal, state and local government web resources and services.